sensor_id;sensor_type;location;lat;lon;timestamp;P1;durP1;ratioP1;P2;durP2;ratioP2
18443;SDS011;9350;53.176;8.194;2023-08-17T00:02:14;2.72;;;1.65;;
18443;SDS011;9350;53.176;8.194;2023-08-17T00:04:40;7.18;;;1.90;;
18443;SDS011;9350;53.176;8.194;2023-08-17T00:07:07;4.78;;;2.15;;
18443;SDS011;9350;53.176;8.194;2023-08-17T00:09:34;5.90;;;1.77;;
18443;SDS011;9350;53.176;8.194;2023-08-17T00:12:00;6.40;;;1.98;;
18443;SDS011;9350;53.176;8.194;2023-08-17T00:14:27;2.28;;;1.77;;
18443;SDS011;9350;53.176;8.194;2023-08-17T00:16:54;4.30;;;1.80;;
18443;SDS011;9350;53.176;8.194;2023-08-17T00:19:22;3.63;;;1.98;;
18443;SDS011;9350;53.176;8.194;2023-08-17T00:21:49;5.53;;;2.00;;
18443;SDS011;9350;53.176;8.194;2023-08-17T00:24:17;3.40;;;1.65;;
18443;SDS011;9350;53.176;8.194;2023-08-17T00:26:44;3.55;;;1.63;;
18443;SDS011;9350;53.176;8.194;2023-08-17T00:29:10;4.90;;;1.90;;
18443;SDS011;9350;53.176;8.194;2023-08-17T00:31:39;2.53;;;1.60;;
18443;SDS011;9350;53.176;8.194;2023-08-17T00:34:06;1.80;;;1.67;;
18443;SDS011;9350;53.176;8.194;2023-08-17T00:36:34;4.72;;;1.60;;
18443;SDS011;9350;53.176;8.194;2023-08-17T00:39:01;4.15;;;1.75;;
18443;SDS011;9350;53.176;8.194;2023-08-17T00:41:27;5.28;;;1.77;;
18443;SDS011;9350;53.176;8.194;2023-08-17T00:43:55;6.32;;;1.88;;
18443;SDS011;9350;53.176;8.194;2023-08-17T00:46:22;1.92;;;1.70;;
18443;SDS011;9350;53.176;8.194;2023-08-17T00:48:49;4.10;;;1.80;;
18443;SDS011;9350;53.176;8.194;2023-08-17T00:51:15;7.38;;;1.85;;
18443;SDS011;9350;53.176;8.194;2023-08-17T00:53:46;2.13;;;1.80;;
18443;SDS011;9350;53.176;8.194;2023-08-17T00:56:13;3.35;;;1.98;;
18443;SDS011;9350;53.176;8.194;2023-08-17T00:58:40;4.93;;;1.95;;
18443;SDS011;9350;53.176;8.194;2023-08-17T01:01:08;2.10;;;1.58;;
18443;SDS011;9350;53.176;8.194;2023-08-17T01:03:34;3.95;;;2.22;;
18443;SDS011;9350;53.176;8.194;2023-08-17T01:06:02;6.85;;;1.98;;
18443;SDS011;9350;53.176;8.194;2023-08-17T01:08:29;4.45;;;1.80;;
18443;SDS011;9350;53.176;8.194;2023-08-17T01:10:59;3.28;;;1.90;;
18443;SDS011;9350;53.176;8.194;2023-08-17T01:13:33;4.18;;;1.73;;
18443;SDS011;9350;53.176;8.194;2023-08-17T01:16:05;5.47;;;2.00;;
18443;SDS011;9350;53.176;8.194;2023-08-17T01:18:36;10.70;;;3.33;;
18443;SDS011;9350;53.176;8.194;2023-08-17T01:21:06;6.00;;;2.25;;
18443;SDS011;9350;53.176;8.194;2023-08-17T01:23:37;3.35;;;1.80;;
18443;SDS011;9350;53.176;8.194;2023-08-17T01:26:04;5.38;;;2.17;;
18443;SDS011;9350;53.176;8.194;2023-08-17T01:28:30;4.75;;;2.10;;
18443;SDS011;9350;53.176;8.194;2023-08-17T01:30:58;6.13;;;2.10;;
18443;SDS011;9350;53.176;8.194;2023-08-17T01:33:31;8.43;;;2.40;;
18443;SDS011;9350;53.176;8.194;2023-08-17T01:36:02;22.67;;;3.03;;
18443;SDS011;9350;53.176;8.194;2023-08-17T01:38:34;4.45;;;2.45;;
18443;SDS011;9350;53.176;8.194;2023-08-17T01:41:05;6.25;;;2.17;;
18443;SDS011;9350;53.176;8.194;2023-08-17T01:43:38;7.10;;;2.08;;
18443;SDS011;9350;53.176;8.194;2023-08-17T01:46:06;4.13;;;2.20;;
18443;SDS011;9350;53.176;8.194;2023-08-17T01:48:33;7.10;;;2.40;;
18443;SDS011;9350;53.176;8.194;2023-08-17T01:51:00;4.70;;;2.22;;
18443;SDS011;9350;53.176;8.194;2023-08-17T01:53:27;7.55;;;2.58;;
18443;SDS011;9350;53.176;8.194;2023-08-17T01:55:53;4.75;;;2.00;;
18443;SDS011;9350;53.176;8.194;2023-08-17T01:58:21;3.85;;;2.05;;
18443;SDS011;9350;53.176;8.194;2023-08-17T02:00:48;5.05;;;2.00;;
18443;SDS011;9350;53.176;8.194;2023-08-17T02:03:15;7.75;;;2.15;;
18443;SDS011;9350;53.176;8.194;2023-08-17T02:05:43;4.65;;;2.25;;
18443;SDS011;9350;53.176;8.194;2023-08-17T02:08:10;7.57;;;2.17;;
18443;SDS011;9350;53.176;8.194;2023-08-17T02:10:37;5.13;;;1.90;;
18443;SDS011;9350;53.176;8.194;2023-08-17T02:13:04;7.63;;;2.38;;
18443;SDS011;9350;53.176;8.194;2023-08-17T02:15:32;6.22;;;2.10;;
18443;SDS011;9350;53.176;8.194;2023-08-17T02:18:04;4.22;;;1.83;;
18443;SDS011;9350;53.176;8.194;2023-08-17T02:20:31;6.38;;;2.42;;
18443;SDS011;9350;53.176;8.194;2023-08-17T02:22:58;4.20;;;1.80;;
18443;SDS011;9350;53.176;8.194;2023-08-17T02:25:24;2.65;;;1.80;;
18443;SDS011;9350;53.176;8.194;2023-08-17T02:27:51;3.75;;;1.80;;
18443;SDS011;9350;53.176;8.194;2023-08-17T02:30:18;5.82;;;2.13;;
18443;SDS011;9350;53.176;8.194;2023-08-17T02:32:46;2.75;;;1.98;;
18443;SDS011;9350;53.176;8.194;2023-08-17T02:35:13;5.15;;;2.00;;
18443;SDS011;9350;53.176;8.194;2023-08-17T02:37:39;6.50;;;2.30;;
18443;SDS011;9350;53.176;8.194;2023-08-17T02:40:06;7.85;;;2.00;;
18443;SDS011;9350;53.176;8.194;2023-08-17T02:42:34;6.55;;;2.05;;
18443;SDS011;9350;53.176;8.194;2023-08-17T02:45:00;7.38;;;2.03;;
18443;SDS011;9350;53.176;8.194;2023-08-17T02:47:27;5.78;;;2.03;;
18443;SDS011;9350;53.176;8.194;2023-08-17T02:49:55;3.42;;;1.60;;
18443;SDS011;9350;53.176;8.194;2023-08-17T02:52:22;5.50;;;1.80;;
18443;SDS011;9350;53.176;8.194;2023-08-17T02:54:48;8.52;;;2.53;;
18443;SDS011;9350;53.176;8.194;2023-08-17T02:57:15;5.68;;;2.30;;
18443;SDS011;9350;53.176;8.194;2023-08-17T02:59:43;5.40;;;1.88;;
18443;SDS011;9350;53.176;8.194;2023-08-17T03:02:10;4.57;;;2.13;;
18443;SDS011;9350;53.176;8.194;2023-08-17T03:04:36;6.55;;;2.00;;
18443;SDS011;9350;53.176;8.194;2023-08-17T03:07:05;5.30;;;2.03;;
18443;SDS011;9350;53.176;8.194;2023-08-17T03:09:31;4.15;;;2.10;;
18443;SDS011;9350;53.176;8.194;2023-08-17T03:11:58;8.52;;;2.40;;
18443;SDS011;9350;53.176;8.194;2023-08-17T03:14:25;4.15;;;2.08;;
18443;SDS011;9350;53.176;8.194;2023-08-17T03:16:51;7.25;;;2.08;;
18443;SDS011;9350;53.176;8.194;2023-08-17T03:19:18;6.93;;;2.28;;
18443;SDS011;9350;53.176;8.194;2023-08-17T03:21:45;5.20;;;1.90;;
18443;SDS011;9350;53.176;8.194;2023-08-17T03:24:13;4.00;;;1.80;;
18443;SDS011;9350;53.176;8.194;2023-08-17T03:26:39;3.50;;;1.73;;
18443;SDS011;9350;53.176;8.194;2023-08-17T03:29:06;4.75;;;1.95;;
18443;SDS011;9350;53.176;8.194;2023-08-17T03:31:34;3.42;;;1.75;;
18443;SDS011;9350;53.176;8.194;2023-08-17T03:34:01;3.92;;;1.92;;
18443;SDS011;9350;53.176;8.194;2023-08-17T03:36:28;2.80;;;1.60;;
18443;SDS011;9350;53.176;8.194;2023-08-17T03:38:55;5.53;;;1.98;;
18443;SDS011;9350;53.176;8.194;2023-08-17T03:41:23;2.88;;;1.77;;
18443;SDS011;9350;53.176;8.194;2023-08-17T03:43:50;4.78;;;1.73;;
18443;SDS011;9350;53.176;8.194;2023-08-17T03:46:16;3.90;;;1.73;;
18443;SDS011;9350;53.176;8.194;2023-08-17T03:48:43;2.55;;;1.70;;
18443;SDS011;9350;53.176;8.194;2023-08-17T03:51:10;3.90;;;1.70;;
18443;SDS011;9350;53.176;8.194;2023-08-17T03:53:36;3.05;;;1.95;;
18443;SDS011;9350;53.176;8.194;2023-08-17T03:56:03;4.20;;;1.65;;
18443;SDS011;9350;53.176;8.194;2023-08-17T03:58:31;3.20;;;1.80;;
18443;SDS011;9350;53.176;8.194;2023-08-17T04:00:59;6.13;;;2.08;;
18443;SDS011;9350;53.176;8.194;2023-08-17T04:03:26;3.55;;;1.98;;
18443;SDS011;9350;53.176;8.194;2023-08-17T04:05:53;4.63;;;1.90;;
18443;SDS011;9350;53.176;8.194;2023-08-17T04:08:19;1.85;;;1.70;;
18443;SDS011;9350;53.176;8.194;2023-08-17T04:10:46;4.85;;;1.90;;
18443;SDS011;9350;53.176;8.194;2023-08-17T04:13:13;3.70;;;1.85;;
18443;SDS011;9350;53.176;8.194;2023-08-17T04:15:41;8.80;;;2.05;;
18443;SDS011;9350;53.176;8.194;2023-08-17T04:18:08;5.30;;;1.77;;
18443;SDS011;9350;53.176;8.194;2023-08-17T04:20:34;4.93;;;1.92;;
18443;SDS011;9350;53.176;8.194;2023-08-17T04:23:01;3.63;;;2.05;;
18443;SDS011;9350;53.176;8.194;2023-08-17T04:25:28;3.80;;;2.13;;
18443;SDS011;9350;53.176;8.194;2023-08-17T04:27:55;3.13;;;1.73;;
18443;SDS011;9350;53.176;8.194;2023-08-17T04:30:22;8.57;;;1.77;;
18443;SDS011;9350;53.176;8.194;2023-08-17T04:32:50;6.72;;;1.80;;
18443;SDS011;9350;53.176;8.194;2023-08-17T04:35:17;2.97;;;1.88;;
18443;SDS011;9350;53.176;8.194;2023-08-17T04:37:44;4.32;;;2.05;;
18443;SDS011;9350;53.176;8.194;2023-08-17T04:40:12;2.53;;;1.77;;
18443;SDS011;9350;53.176;8.194;2023-08-17T04:42:39;7.20;;;1.58;;
18443;SDS011;9350;53.176;8.194;2023-08-17T04:45:06;2.38;;;1.70;;
18443;SDS011;9350;53.176;8.194;2023-08-17T04:47:33;7.13;;;1.52;;
18443;SDS011;9350;53.176;8.194;2023-08-17T04:50:01;3.72;;;1.55;;
18443;SDS011;9350;53.176;8.194;2023-08-17T04:52:28;4.07;;;1.63;;
18443;SDS011;9350;53.176;8.194;2023-08-17T04:54:55;2.88;;;1.73;;
18443;SDS011;9350;53.176;8.194;2023-08-17T04:57:21;4.20;;;1.90;;
18443;SDS011;9350;53.176;8.194;2023-08-17T04:59:49;4.82;;;1.95;;
18443;SDS011;9350;53.176;8.194;2023-08-17T05:02:17;2.88;;;1.90;;
18443;SDS011;9350;53.176;8.194;2023-08-17T05:04:45;3.80;;;1.70;;
18443;SDS011;9350;53.176;8.194;2023-08-17T05:07:13;3.22;;;1.83;;
18443;SDS011;9350;53.176;8.194;2023-08-17T05:09:40;3.20;;;1.88;;
18443;SDS011;9350;53.176;8.194;2023-08-17T05:12:07;8.73;;;2.17;;
18443;SDS011;9350;53.176;8.194;2023-08-17T05:14:34;4.40;;;2.10;;
18443;SDS011;9350;53.176;8.194;2023-08-17T05:17:01;3.75;;;1.80;;
18443;SDS011;9350;53.176;8.194;2023-08-17T05:19:28;2.63;;;1.70;;
18443;SDS011;9350;53.176;8.194;2023-08-17T05:21:54;8.07;;;2.00;;
18443;SDS011;9350;53.176;8.194;2023-08-17T05:24:22;5.65;;;2.05;;
18443;SDS011;9350;53.176;8.194;2023-08-17T05:26:49;4.55;;;1.80;;
18443;SDS011;9350;53.176;8.194;2023-08-17T05:29:16;2.78;;;1.90;;
18443;SDS011;9350;53.176;8.194;2023-08-17T05:31:42;4.32;;;1.60;;
18443;SDS011;9350;53.176;8.194;2023-08-17T05:34:09;5.68;;;1.88;;
18443;SDS011;9350;53.176;8.194;2023-08-17T05:36:36;2.88;;;2.10;;
18443;SDS011;9350;53.176;8.194;2023-08-17T05:39:03;3.78;;;1.85;;
18443;SDS011;9350;53.176;8.194;2023-08-17T05:41:31;4.93;;;2.00;;
18443;SDS011;9350;53.176;8.194;2023-08-17T05:43:58;3.17;;;2.00;;
18443;SDS011;9350;53.176;8.194;2023-08-17T05:46:24;5.10;;;1.90;;
18443;SDS011;9350;53.176;8.194;2023-08-17T05:48:51;4.20;;;2.10;;
18443;SDS011;9350;53.176;8.194;2023-08-17T05:51:18;4.75;;;1.70;;
18443;SDS011;9350;53.176;8.194;2023-08-17T05:53:44;3.63;;;2.03;;
18443;SDS011;9350;53.176;8.194;2023-08-17T05:56:11;2.95;;;1.98;;
18443;SDS011;9350;53.176;8.194;2023-08-17T05:58:39;3.33;;;1.90;;
18443;SDS011;9350;53.176;8.194;2023-08-17T06:01:06;4.10;;;2.10;;
18443;SDS011;9350;53.176;8.194;2023-08-17T06:03:33;1.85;;;1.65;;
18443;SDS011;9350;53.176;8.194;2023-08-17T06:06:00;3.50;;;2.03;;
18443;SDS011;9350;53.176;8.194;2023-08-17T06:08:27;3.75;;;2.05;;
18443;SDS011;9350;53.176;8.194;2023-08-17T06:10:54;3.05;;;2.25;;
18443;SDS011;9350;53.176;8.194;2023-08-17T06:13:21;5.18;;;2.50;;
18443;SDS011;9350;53.176;8.194;2023-08-17T06:15:49;3.17;;;2.17;;
18443;SDS011;9350;53.176;8.194;2023-08-17T06:18:16;2.25;;;2.05;;
18443;SDS011;9350;53.176;8.194;2023-08-17T06:20:43;5.50;;;2.30;;
18443;SDS011;9350;53.176;8.194;2023-08-17T06:23:11;9.73;;;2.33;;
18443;SDS011;9350;53.176;8.194;2023-08-17T06:25:38;4.32;;;2.00;;
18443;SDS011;9350;53.176;8.194;2023-08-17T06:28:05;3.70;;;2.33;;
18443;SDS011;9350;53.176;8.194;2023-08-17T06:30:32;7.15;;;2.50;;
18443;SDS011;9350;53.176;8.194;2023-08-17T06:33:00;3.65;;;2.08;;
18443;SDS011;9350;53.176;8.194;2023-08-17T06:35:26;4.97;;;2.08;;
18443;SDS011;9350;53.176;8.194;2023-08-17T06:37:53;2.92;;;2.10;;
18443;SDS011;9350;53.176;8.194;2023-08-17T06:40:22;6.55;;;2.30;;
18443;SDS011;9350;53.176;8.194;2023-08-17T06:42:49;3.80;;;2.30;;
18443;SDS011;9350;53.176;8.194;2023-08-17T06:45:17;3.72;;;2.28;;
18443;SDS011;9350;53.176;8.194;2023-08-17T06:47:44;4.57;;;2.28;;
18443;SDS011;9350;53.176;8.194;2023-08-17T06:50:14;5.10;;;2.10;;
18443;SDS011;9350;53.176;8.194;2023-08-17T06:52:41;3.40;;;2.15;;
18443;SDS011;9350;53.176;8.194;2023-08-17T06:55:08;7.03;;;2.20;;
18443;SDS011;9350;53.176;8.194;2023-08-17T07:00:07;4.43;;;2.10;;
18443;SDS011;9350;53.176;8.194;2023-08-17T07:02:36;5.05;;;2.30;;
18443;SDS011;9350;53.176;8.194;2023-08-17T07:05:03;4.47;;;1.95;;
18443;SDS011;9350;53.176;8.194;2023-08-17T07:07:31;7.55;;;2.40;;
18443;SDS011;9350;53.176;8.194;2023-08-17T07:09:58;3.22;;;1.85;;
18443;SDS011;9350;53.176;8.194;2023-08-17T07:12:26;7.70;;;2.30;;
18443;SDS011;9350;53.176;8.194;2023-08-17T07:14:53;3.15;;;2.00;;
18443;SDS011;9350;53.176;8.194;2023-08-17T07:17:20;5.07;;;2.00;;
18443;SDS011;9350;53.176;8.194;2023-08-17T07:19:46;2.15;;;1.95;;
18443;SDS011;9350;53.176;8.194;2023-08-17T07:22:13;2.78;;;1.98;;
18443;SDS011;9350;53.176;8.194;2023-08-17T07:24:42;4.07;;;1.95;;
18443;SDS011;9350;53.176;8.194;2023-08-17T07:27:09;5.63;;;2.25;;
18443;SDS011;9350;53.176;8.194;2023-08-17T07:29:36;6.60;;;2.15;;
18443;SDS011;9350;53.176;8.194;2023-08-17T07:32:02;3.10;;;2.13;;
18443;SDS011;9350;53.176;8.194;2023-08-17T07:34:30;4.75;;;2.38;;
18443;SDS011;9350;53.176;8.194;2023-08-17T07:36:56;7.53;;;2.08;;
18443;SDS011;9350;53.176;8.194;2023-08-17T07:39:23;3.10;;;2.10;;
18443;SDS011;9350;53.176;8.194;2023-08-17T07:41:51;4.88;;;2.72;;
18443;SDS011;9350;53.176;8.194;2023-08-17T07:44:18;3.33;;;2.22;;
18443;SDS011;9350;53.176;8.194;2023-08-17T07:46:45;3.47;;;1.85;;
18443;SDS011;9350;53.176;8.194;2023-08-17T07:49:12;4.90;;;2.03;;
18443;SDS011;9350;53.176;8.194;2023-08-17T07:51:38;4.00;;;2.40;;
18443;SDS011;9350;53.176;8.194;2023-08-17T07:54:05;5.93;;;2.30;;
18443;SDS011;9350;53.176;8.194;2023-08-17T07:56:32;5.75;;;2.03;;
18443;SDS011;9350;53.176;8.194;2023-08-17T07:59:00;6.68;;;2.53;;
18443;SDS011;9350;53.176;8.194;2023-08-17T08:01:26;3.30;;;2.17;;
18443;SDS011;9350;53.176;8.194;2023-08-17T08:03:53;3.97;;;2.22;;
18443;SDS011;9350;53.176;8.194;2023-08-17T08:06:20;2.40;;;2.00;;
18443;SDS011;9350;53.176;8.194;2023-08-17T08:08:46;7.13;;;2.60;;
18443;SDS011;9350;53.176;8.194;2023-08-17T08:11:13;4.40;;;2.65;;
18443;SDS011;9350;53.176;8.194;2023-08-17T08:13:40;2.88;;;2.10;;
18443;SDS011;9350;53.176;8.194;2023-08-17T08:16:08;4.57;;;2.20;;
18443;SDS011;9350;53.176;8.194;2023-08-17T08:18:35;3.25;;;2.10;;
18443;SDS011;9350;53.176;8.194;2023-08-17T08:21:01;3.78;;;2.22;;
18443;SDS011;9350;53.176;8.194;2023-08-17T08:23:28;3.28;;;2.38;;
18443;SDS011;9350;53.176;8.194;2023-08-17T08:25:55;5.07;;;2.45;;
18443;SDS011;9350;53.176;8.194;2023-08-17T08:28:23;4.70;;;2.67;;
18443;SDS011;9350;53.176;8.194;2023-08-17T08:30:49;4.25;;;2.38;;
18443;SDS011;9350;53.176;8.194;2023-08-17T08:33:17;5.60;;;2.63;;
18443;SDS011;9350;53.176;8.194;2023-08-17T08:35:44;5.90;;;2.95;;
18443;SDS011;9350;53.176;8.194;2023-08-17T08:38:12;6.07;;;2.95;;
18443;SDS011;9350;53.176;8.194;2023-08-17T08:40:40;4.18;;;2.78;;
18443;SDS011;9350;53.176;8.194;2023-08-17T08:43:08;4.18;;;2.67;;
18443;SDS011;9350;53.176;8.194;2023-08-17T08:45:35;4.90;;;3.00;;
18443;SDS011;9350;53.176;8.194;2023-08-17T08:48:03;4.15;;;2.55;;
18443;SDS011;9350;53.176;8.194;2023-08-17T08:50:32;5.50;;;2.97;;
18443;SDS011;9350;53.176;8.194;2023-08-17T08:53:02;7.35;;;3.00;;
18443;SDS011;9350;53.176;8.194;2023-08-17T08:55:32;4.80;;;3.10;;
18443;SDS011;9350;53.176;8.194;2023-08-17T08:58:03;4.45;;;2.72;;
18443;SDS011;9350;53.176;8.194;2023-08-17T09:00:30;5.70;;;2.95;;
18443;SDS011;9350;53.176;8.194;2023-08-17T09:02:58;3.88;;;2.60;;
18443;SDS011;9350;53.176;8.194;2023-08-17T09:05:26;3.50;;;2.83;;
18443;SDS011;9350;53.176;8.194;2023-08-17T09:07:56;4.65;;;2.80;;
18443;SDS011;9350;53.176;8.194;2023-08-17T09:10:23;3.50;;;3.17;;
18443;SDS011;9350;53.176;8.194;2023-08-17T09:12:50;4.00;;;2.92;;
18443;SDS011;9350;53.176;8.194;2023-08-17T09:15:17;3.53;;;3.13;;
18443;SDS011;9350;53.176;8.194;2023-08-17T09:17:44;5.28;;;3.22;;
18443;SDS011;9350;53.176;8.194;2023-08-17T09:20:17;3.70;;;3.30;;
18443;SDS011;9350;53.176;8.194;2023-08-17T09:23:06;6.30;;;3.08;;
18443;SDS011;9350;53.176;8.194;2023-08-17T09:25:37;3.83;;;3.22;;
18443;SDS011;9350;53.176;8.194;2023-08-17T09:28:08;3.97;;;3.50;;
18443;SDS011;9350;53.176;8.194;2023-08-17T09:30:49;3.50;;;3.10;;
18443;SDS011;9350;53.176;8.194;2023-08-17T09:33:17;5.68;;;3.22;;
18443;SDS011;9350;53.176;8.194;2023-08-17T09:35:44;3.88;;;3.42;;
18443;SDS011;9350;53.176;8.194;2023-08-17T09:38:12;4.85;;;3.28;;
18443;SDS011;9350;53.176;8.194;2023-08-17T09:40:38;6.05;;;3.70;;
18443;SDS011;9350;53.176;8.194;2023-08-17T09:43:05;4.07;;;3.35;;
18443;SDS011;9350;53.176;8.194;2023-08-17T09:45:32;4.70;;;3.10;;
18443;SDS011;9350;53.176;8.194;2023-08-17T09:47:59;4.80;;;2.90;;
18443;SDS011;9350;53.176;8.194;2023-08-17T09:50:26;3.40;;;3.10;;
18443;SDS011;9350;53.176;8.194;2023-08-17T09:52:53;4.15;;;3.17;;
18443;SDS011;9350;53.176;8.194;2023-08-17T09:55:21;4.78;;;3.65;;
18443;SDS011;9350;53.176;8.194;2023-08-17T09:57:49;3.15;;;2.85;;
18443;SDS011;9350;53.176;8.194;2023-08-17T10:00:16;15.85;;;3.63;;
18443;SDS011;9350;53.176;8.194;2023-08-17T10:02:44;3.45;;;3.15;;
18443;SDS011;9350;53.176;8.194;2023-08-17T10:05:11;4.03;;;2.80;;
18443;SDS011;9350;53.176;8.194;2023-08-17T10:07:46;6.18;;;3.10;;
18443;SDS011;9350;53.176;8.194;2023-08-17T10:10:19;5.72;;;3.38;;
18443;SDS011;9350;53.176;8.194;2023-08-17T10:12:53;3.47;;;3.20;;
18443;SDS011;9350;53.176;8.194;2023-08-17T10:15:29;5.03;;;3.00;;
18443;SDS011;9350;53.176;8.194;2023-08-17T10:17:58;4.75;;;3.30;;
18443;SDS011;9350;53.176;8.194;2023-08-17T10:20:31;3.58;;;2.78;;
18443;SDS011;9350;53.176;8.194;2023-08-17T10:23:05;4.57;;;3.28;;
18443;SDS011;9350;53.176;8.194;2023-08-17T10:25:39;3.38;;;2.63;;
18443;SDS011;9350;53.176;8.194;2023-08-17T10:28:07;4.35;;;2.60;;
18443;SDS011;9350;53.176;8.194;2023-08-17T10:30:35;5.35;;;2.67;;
18443;SDS011;9350;53.176;8.194;2023-08-17T10:33:02;3.22;;;2.47;;
18443;SDS011;9350;53.176;8.194;2023-08-17T10:35:31;2.35;;;2.17;;
18443;SDS011;9350;53.176;8.194;2023-08-17T10:37:59;3.90;;;2.60;;
18443;SDS011;9350;53.176;8.194;2023-08-17T10:40:28;3.13;;;2.63;;
18443;SDS011;9350;53.176;8.194;2023-08-17T10:43:01;4.07;;;2.58;;
18443;SDS011;9350;53.176;8.194;2023-08-17T10:45:29;3.70;;;2.45;;
18443;SDS011;9350;53.176;8.194;2023-08-17T10:48:00;5.03;;;2.70;;
18443;SDS011;9350;53.176;8.194;2023-08-17T10:51:02;3.42;;;2.30;;
18443;SDS011;9350;53.176;8.194;2023-08-17T10:53:36;2.70;;;2.50;;
18443;SDS011;9350;53.176;8.194;2023-08-17T10:56:07;3.65;;;2.60;;
18443;SDS011;9350;53.176;8.194;2023-08-17T10:58:38;3.72;;;2.70;;
18443;SDS011;9350;53.176;8.194;2023-08-17T11:01:06;2.67;;;2.13;;
18443;SDS011;9350;53.176;8.194;2023-08-17T11:03:33;3.65;;;2.15;;
18443;SDS011;9350;53.176;8.194;2023-08-17T11:06:13;2.70;;;2.17;;
18443;SDS011;9350;53.176;8.194;2023-08-17T11:08:50;3.17;;;2.05;;
18443;SDS011;9350;53.176;8.194;2023-08-17T11:11:19;2.88;;;2.22;;
18443;SDS011;9350;53.176;8.194;2023-08-17T11:13:48;2.92;;;1.90;;
18443;SDS011;9350;53.176;8.194;2023-08-17T11:16:15;1.83;;;1.60;;
18443;SDS011;9350;53.176;8.194;2023-08-17T11:18:44;5.15;;;2.00;;
18443;SDS011;9350;53.176;8.194;2023-08-17T11:21:11;1.70;;;1.55;;
18443;SDS011;9350;53.176;8.194;2023-08-17T11:23:39;1.73;;;1.63;;
18443;SDS011;9350;53.176;8.194;2023-08-17T11:26:06;2.42;;;1.60;;
18443;SDS011;9350;53.176;8.194;2023-08-17T11:28:34;1.70;;;1.60;;
18443;SDS011;9350;53.176;8.194;2023-08-17T11:31:05;1.83;;;1.67;;
18443;SDS011;9350;53.176;8.194;2023-08-17T11:33:33;1.48;;;1.40;;
18443;SDS011;9350;53.176;8.194;2023-08-17T11:36:01;2.70;;;1.67;;
18443;SDS011;9350;53.176;8.194;2023-08-17T11:38:30;1.80;;;1.70;;
18443;SDS011;9350;53.176;8.194;2023-08-17T11:40:57;1.80;;;1.60;;
18443;SDS011;9350;53.176;8.194;2023-08-17T11:43:25;2.63;;;2.10;;
18443;SDS011;9350;53.176;8.194;2023-08-17T11:45:52;2.17;;;1.98;;
18443;SDS011;9350;53.176;8.194;2023-08-17T11:48:20;3.35;;;2.03;;
18443;SDS011;9350;53.176;8.194;2023-08-17T11:50:48;2.90;;;2.13;;
18443;SDS011;9350;53.176;8.194;2023-08-17T11:53:15;1.75;;;1.65;;
18443;SDS011;9350;53.176;8.194;2023-08-17T11:55:42;1.90;;;1.73;;
18443;SDS011;9350;53.176;8.194;2023-08-17T11:58:09;3.78;;;2.03;;
18443;SDS011;9350;53.176;8.194;2023-08-17T12:00:36;3.85;;;2.00;;
18443;SDS011;9350;53.176;8.194;2023-08-17T12:03:06;3.58;;;2.08;;
18443;SDS011;9350;53.176;8.194;2023-08-17T12:05:34;2.80;;;2.20;;
18443;SDS011;9350;53.176;8.194;2023-08-17T12:08:01;2.50;;;2.28;;
18443;SDS011;9350;53.176;8.194;2023-08-17T12:10:29;5.45;;;2.17;;
18443;SDS011;9350;53.176;8.194;2023-08-17T12:12:57;3.00;;;1.90;;
18443;SDS011;9350;53.176;8.194;2023-08-17T12:15:29;3.83;;;1.98;;
18443;SDS011;9350;53.176;8.194;2023-08-17T12:17:58;3.75;;;1.90;;
18443;SDS011;9350;53.176;8.194;2023-08-17T12:20:26;3.45;;;1.92;;
18443;SDS011;9350;53.176;8.194;2023-08-17T12:22:54;2.05;;;1.85;;
18443;SDS011;9350;53.176;8.194;2023-08-17T12:25:21;2.53;;;1.90;;
18443;SDS011;9350;53.176;8.194;2023-08-17T12:27:48;2.97;;;2.00;;
18443;SDS011;9350;53.176;8.194;2023-08-17T12:30:23;2.17;;;1.98;;
18443;SDS011;9350;53.176;8.194;2023-08-17T12:32:51;2.22;;;2.05;;
18443;SDS011;9350;53.176;8.194;2023-08-17T12:35:18;3.20;;;1.98;;
18443;SDS011;9350;53.176;8.194;2023-08-17T12:37:46;4.47;;;2.53;;
18443;SDS011;9350;53.176;8.194;2023-08-17T12:40:14;1.98;;;1.88;;
18443;SDS011;9350;53.176;8.194;2023-08-17T12:42:41;4.10;;;2.35;;
18443;SDS011;9350;53.176;8.194;2023-08-17T12:45:08;6.40;;;2.55;;
18443;SDS011;9350;53.176;8.194;2023-08-17T12:47:35;2.40;;;2.20;;
18443;SDS011;9350;53.176;8.194;2023-08-17T12:50:03;3.15;;;2.05;;
18443;SDS011;9350;53.176;8.194;2023-08-17T12:52:30;3.75;;;2.03;;
18443;SDS011;9350;53.176;8.194;2023-08-17T12:54:57;2.38;;;2.15;;
18443;SDS011;9350;53.176;8.194;2023-08-17T12:57:25;4.40;;;2.33;;
18443;SDS011;9350;53.176;8.194;2023-08-17T12:59:51;3.25;;;2.05;;
18443;SDS011;9350;53.176;8.194;2023-08-17T13:02:19;2.17;;;1.90;;
18443;SDS011;9350;53.176;8.194;2023-08-17T13:04:46;1.98;;;1.83;;
18443;SDS011;9350;53.176;8.194;2023-08-17T13:07:12;2.03;;;1.80;;
18443;SDS011;9350;53.176;8.194;2023-08-17T13:09:40;1.95;;;1.77;;
18443;SDS011;9350;53.176;8.194;2023-08-17T13:12:07;2.53;;;1.70;;
18443;SDS011;9350;53.176;8.194;2023-08-17T13:14:35;1.80;;;1.70;;
18443;SDS011;9350;53.176;8.194;2023-08-17T13:17:02;2.38;;;2.00;;
18443;SDS011;9350;53.176;8.194;2023-08-17T13:19:29;3.58;;;2.30;;
18443;SDS011;9350;53.176;8.194;2023-08-17T13:21:56;13.15;;;5.80;;
18443;SDS011;9350;53.176;8.194;2023-08-17T13:24:22;3.00;;;2.80;;
18443;SDS011;9350;53.176;8.194;2023-08-17T13:26:49;3.10;;;2.28;;
18443;SDS011;9350;53.176;8.194;2023-08-17T13:29:19;2.38;;;1.90;;
18443;SDS011;9350;53.176;8.194;2023-08-17T13:31:47;2.97;;;1.90;;
18443;SDS011;9350;53.176;8.194;2023-08-17T13:34:14;4.00;;;2.30;;
18443;SDS011;9350;53.176;8.194;2023-08-17T13:36:41;2.58;;;1.85;;
18443;SDS011;9350;53.176;8.194;2023-08-17T13:39:07;2.65;;;2.10;;
18443;SDS011;9350;53.176;8.194;2023-08-17T13:41:34;2.20;;;2.00;;
18443;SDS011;9350;53.176;8.194;2023-08-17T13:44:01;2.10;;;2.00;;
18443;SDS011;9350;53.176;8.194;2023-08-17T13:46:28;6.57;;;2.33;;
18443;SDS011;9350;53.176;8.194;2023-08-17T13:48:56;3.70;;;2.33;;
18443;SDS011;9350;53.176;8.194;2023-08-17T13:51:24;2.40;;;2.20;;
18443;SDS011;9350;53.176;8.194;2023-08-17T13:53:50;2.75;;;2.20;;
18443;SDS011;9350;53.176;8.194;2023-08-17T13:56:17;2.40;;;2.20;;
18443;SDS011;9350;53.176;8.194;2023-08-17T13:58:44;3.35;;;2.70;;
18443;SDS011;9350;53.176;8.194;2023-08-17T14:01:10;4.95;;;2.92;;
18443;SDS011;9350;53.176;8.194;2023-08-17T14:03:37;2.95;;;2.75;;
18443;SDS011;9350;53.176;8.194;2023-08-17T14:06:05;3.65;;;3.35;;
18443;SDS011;9350;53.176;8.194;2023-08-17T14:08:32;4.78;;;3.40;;
18443;SDS011;9350;53.176;8.194;2023-08-17T14:10:59;4.63;;;3.42;;
18443;SDS011;9350;53.176;8.194;2023-08-17T14:13:26;4.63;;;3.80;;
18443;SDS011;9350;53.176;8.194;2023-08-17T14:15:53;5.10;;;4.00;;
18443;SDS011;9350;53.176;8.194;2023-08-17T14:18:21;4.22;;;3.90;;
18443;SDS011;9350;53.176;8.194;2023-08-17T14:20:47;5.60;;;5.10;;
18443;SDS011;9350;53.176;8.194;2023-08-17T14:23:15;5.63;;;5.07;;
18443;SDS011;9350;53.176;8.194;2023-08-17T14:25:42;5.70;;;5.18;;
18443;SDS011;9350;53.176;8.194;2023-08-17T14:28:09;7.78;;;6.95;;
18443;SDS011;9350;53.176;8.194;2023-08-17T14:30:35;8.43;;;7.50;;
18443;SDS011;9350;53.176;8.194;2023-08-17T14:33:02;7.13;;;6.43;;
18443;SDS011;9350;53.176;8.194;2023-08-17T14:35:29;4.47;;;4.10;;
18443;SDS011;9350;53.176;8.194;2023-08-17T14:37:56;4.43;;;4.13;;
18443;SDS011;9350;53.176;8.194;2023-08-17T14:40:27;5.45;;;4.05;;
18443;SDS011;9350;53.176;8.194;2023-08-17T14:42:54;4.85;;;3.88;;
18443;SDS011;9350;53.176;8.194;2023-08-17T14:45:20;5.13;;;4.65;;
18443;SDS011;9350;53.176;8.194;2023-08-17T14:47:47;6.53;;;4.90;;
18443;SDS011;9350;53.176;8.194;2023-08-17T14:50:14;5.05;;;4.65;;
18443;SDS011;9350;53.176;8.194;2023-08-17T14:52:41;4.53;;;4.10;;
18443;SDS011;9350;53.176;8.194;2023-08-17T14:55:07;3.13;;;2.92;;
18443;SDS011;9350;53.176;8.194;2023-08-17T14:57:36;2.30;;;2.20;;
18443;SDS011;9350;53.176;8.194;2023-08-17T15:00:03;2.10;;;2.00;;
18443;SDS011;9350;53.176;8.194;2023-08-17T15:02:30;3.70;;;2.17;;
18443;SDS011;9350;53.176;8.194;2023-08-17T15:04:57;2.20;;;1.50;;
18443;SDS011;9350;53.176;8.194;2023-08-17T15:07:24;1.20;;;1.20;;